createdAt,value
2022-11-07T00:00:35.908Z,987.02
2022-11-07T00:01:35.961Z,987.06
2022-11-07T00:02:35.953Z,987.09
2022-11-07T00:03:36.194Z,987.08
2022-11-07T00:04:35.882Z,987.11
2022-11-07T00:05:35.861Z,987.08
2022-11-07T00:06:35.855Z,987.07
2022-11-07T00:07:35.830Z,987.07
2022-11-07T00:08:35.843Z,987.05
2022-11-07T00:09:35.823Z,987.06
2022-11-07T00:10:35.815Z,987.07
2022-11-07T00:11:35.799Z,987.05
2022-11-07T00:12:35.783Z,987.05
2022-11-07T00:13:35.756Z,987.07
2022-11-07T00:14:35.771Z,987.05
2022-11-07T00:15:35.761Z,987.07
2022-11-07T00:16:35.744Z,987.11
2022-11-07T00:17:35.728Z,987.07
2022-11-07T00:18:35.719Z,987.05
2022-11-07T00:19:35.700Z,987.07
2022-11-07T00:20:35.695Z,987.06
2022-11-07T00:21:35.692Z,987.07
2022-11-07T00:22:35.672Z,987.08
2022-11-07T00:23:35.671Z,987.07
2022-11-07T00:24:35.685Z,987.03
2022-11-07T00:25:35.650Z,987.04
2022-11-07T00:26:35.642Z,987.07
2022-11-07T00:27:35.683Z,987.05
2022-11-07T00:28:35.613Z,987.08
2022-11-07T00:29:35.614Z,987.07
2022-11-07T00:30:35.584Z,987.09
2022-11-07T00:31:35.576Z,987.11
2022-11-07T00:32:35.553Z,987.10
2022-11-07T00:33:35.544Z,987.12
2022-11-07T00:34:35.552Z,987.14
2022-11-07T00:35:35.725Z,987.13
2022-11-07T00:36:35.519Z,987.12
2022-11-07T00:37:35.512Z,987.12
2022-11-07T00:38:35.500Z,987.11
2022-11-07T00:39:35.903Z,987.15
2022-11-07T00:40:35.511Z,987.13
2022-11-07T00:41:35.482Z,987.13
2022-11-07T00:42:35.466Z,987.13
2022-11-07T00:43:35.456Z,987.19
2022-11-07T00:44:35.449Z,987.23
2022-11-07T00:45:35.438Z,987.25
2022-11-07T00:46:35.403Z,987.21
2022-11-07T00:47:35.450Z,987.23
2022-11-07T00:48:35.391Z,987.24
2022-11-07T00:49:35.389Z,987.26
2022-11-07T00:50:35.368Z,987.30
2022-11-07T00:51:35.356Z,987.34
2022-11-07T00:52:35.576Z,987.29
2022-11-07T00:53:35.353Z,987.36
2022-11-07T00:54:35.332Z,987.32
2022-11-07T00:55:35.326Z,987.33
2022-11-07T00:56:35.332Z,987.30
2022-11-07T00:57:35.292Z,987.31
2022-11-07T00:58:35.285Z,987.33
2022-11-07T00:59:35.288Z,987.36
2022-11-07T01:00:35.265Z,987.31
2022-11-07T01:01:35.495Z,987.33
2022-11-07T01:02:35.385Z,987.31
2022-11-07T01:03:35.224Z,987.32
2022-11-07T01:04:35.238Z,987.34
2022-11-07T01:05:35.222Z,987.27
2022-11-07T01:06:35.198Z,987.29
2022-11-07T01:07:35.194Z,987.25
2022-11-07T01:08:35.206Z,987.22
2022-11-07T01:09:35.168Z,987.25
2022-11-07T01:10:35.163Z,987.28
2022-11-07T01:11:35.165Z,987.27
2022-11-07T01:12:35.167Z,987.37
2022-11-07T01:13:35.120Z,987.40
2022-11-07T01:14:35.125Z,987.40
2022-11-07T01:15:35.306Z,987.44
2022-11-07T01:16:35.086Z,987.44
2022-11-07T01:17:35.080Z,987.41
2022-11-07T01:18:35.091Z,987.43
2022-11-07T01:19:35.266Z,987.44
2022-11-07T01:20:35.046Z,987.44
2022-11-07T01:21:35.043Z,987.41
2022-11-07T01:22:35.025Z,987.38
2022-11-07T01:23:35.017Z,987.45
2022-11-07T01:24:35.003Z,987.46
2022-11-07T01:25:35.000Z,987.50
2022-11-07T01:26:34.977Z,987.52
2022-11-07T01:27:34.981Z,987.57
2022-11-07T01:28:35.107Z,987.63
2022-11-07T01:29:34.939Z,987.65
2022-11-07T01:30:34.932Z,987.70
2022-11-07T01:31:34.917Z,987.68
2022-11-07T01:32:34.922Z,987.69
2022-11-07T01:33:34.918Z,987.71
2022-11-07T01:34:34.890Z,987.71
2022-11-07T01:35:34.903Z,987.76
2022-11-07T01:36:34.889Z,987.73
2022-11-07T01:37:34.858Z,987.71
2022-11-07T01:38:34.855Z,987.76
2022-11-07T01:39:34.842Z,987.73
2022-11-07T01:40:34.846Z,987.78
2022-11-07T01:41:34.818Z,987.75
2022-11-07T01:42:34.842Z,987.75
2022-11-07T01:43:34.816Z,987.74
2022-11-07T01:44:34.821Z,987.70
2022-11-07T01:45:34.777Z,987.68
2022-11-07T01:46:34.759Z,987.66
2022-11-07T01:47:34.779Z,987.64
2022-11-07T01:48:34.787Z,987.67
2022-11-07T01:49:34.731Z,987.75
2022-11-07T01:50:34.726Z,987.80
2022-11-07T01:51:34.729Z,987.79
2022-11-07T01:52:34.713Z,987.79
2022-11-07T01:53:34.694Z,987.75
2022-11-07T01:54:34.667Z,987.75
2022-11-07T01:55:34.664Z,987.73
2022-11-07T01:56:34.669Z,987.76
2022-11-07T01:57:34.641Z,987.74
2022-11-07T01:58:34.635Z,987.79
2022-11-07T01:59:34.641Z,987.77
2022-11-07T02:00:34.624Z,987.77
2022-11-07T02:01:34.727Z,987.74
2022-11-07T02:02:34.772Z,987.74
2022-11-07T02:03:34.586Z,987.74
2022-11-07T02:04:34.592Z,987.79
2022-11-07T02:05:34.575Z,987.84
2022-11-07T02:06:34.544Z,987.84
2022-11-07T02:07:34.535Z,987.92
2022-11-07T02:08:34.542Z,987.92
2022-11-07T02:09:34.498Z,987.88
2022-11-07T02:10:34.492Z,987.85
2022-11-07T02:11:34.496Z,987.85
2022-11-07T02:12:34.468Z,987.82
2022-11-07T02:13:34.455Z,987.87
2022-11-07T02:14:34.434Z,987.87
2022-11-07T02:15:34.428Z,987.89
2022-11-07T02:16:34.438Z,987.95
2022-11-07T02:17:34.428Z,987.97
2022-11-07T02:18:34.410Z,988.00
2022-11-07T02:19:34.424Z,988.01
2022-11-07T02:20:34.414Z,988.01
2022-11-07T02:21:34.528Z,988.00
2022-11-07T02:22:34.390Z,988.03
2022-11-07T02:23:34.383Z,987.98
2022-11-07T02:24:34.367Z,988.01
2022-11-07T02:25:34.327Z,987.97
2022-11-07T02:26:34.314Z,988.02
2022-11-07T02:27:34.315Z,988.07
2022-11-07T02:28:34.507Z,988.09
2022-11-07T02:29:34.272Z,988.07
2022-11-07T02:30:34.291Z,988.14
2022-11-07T02:31:34.260Z,988.13
2022-11-07T02:32:34.269Z,988.09
2022-11-07T02:33:34.235Z,988.10
2022-11-07T02:34:34.426Z,988.08
2022-11-07T02:35:34.217Z,988.08
2022-11-07T02:36:34.204Z,988.12
2022-11-07T02:37:34.209Z,988.12
2022-11-07T02:38:34.191Z,988.05
2022-11-07T02:39:34.162Z,988.05
2022-11-07T02:40:34.160Z,988.10
2022-11-07T02:41:34.340Z,988.10
2022-11-07T02:42:34.130Z,988.11
2022-11-07T02:43:34.124Z,988.16
2022-11-07T02:44:34.116Z,988.18
2022-11-07T02:45:34.100Z,988.21
2022-11-07T02:46:34.083Z,988.27
2022-11-07T02:47:34.089Z,988.24
2022-11-07T02:48:34.099Z,988.21
2022-11-07T02:49:34.071Z,988.24
2022-11-07T02:50:34.046Z,988.22
2022-11-07T02:51:34.031Z,988.25
2022-11-07T02:52:34.026Z,988.19
2022-11-07T02:53:34.016Z,988.23
2022-11-07T02:54:33.999Z,988.22
2022-11-07T02:55:34.210Z,988.24
2022-11-07T02:56:33.985Z,988.20
2022-11-07T02:57:33.969Z,988.29
2022-11-07T02:58:33.966Z,988.33
2022-11-07T02:59:34.052Z,988.29
2022-11-07T03:00:33.934Z,988.28
2022-11-07T03:01:34.394Z,988.36
2022-11-07T03:02:34.046Z,988.29
2022-11-07T03:03:33.928Z,988.33
2022-11-07T03:04:33.933Z,988.36
2022-11-07T03:05:33.873Z,988.33
2022-11-07T03:06:33.868Z,988.26
2022-11-07T03:07:33.877Z,988.34
2022-11-07T03:08:33.832Z,988.42
2022-11-07T03:09:33.831Z,988.39
2022-11-07T03:10:33.815Z,988.39
2022-11-07T03:11:33.804Z,988.42
2022-11-07T03:12:33.806Z,988.47
2022-11-07T03:13:33.780Z,988.42
2022-11-07T03:14:33.864Z,988.44
2022-11-07T03:15:33.772Z,988.44
2022-11-07T03:16:33.786Z,988.43
2022-11-07T03:17:33.760Z,988.40
2022-11-07T03:18:33.762Z,988.44
2022-11-07T03:19:33.729Z,988.47
2022-11-07T03:20:33.837Z,988.41
2022-11-07T03:21:33.699Z,988.46
2022-11-07T03:22:33.690Z,988.48
2022-11-07T03:23:33.670Z,988.46
2022-11-07T03:24:33.886Z,988.47
2022-11-07T03:25:33.659Z,988.47
2022-11-07T03:26:33.851Z,988.43
2022-11-07T03:27:33.646Z,988.50
2022-11-07T03:28:33.634Z,988.47
2022-11-07T03:29:33.615Z,988.42
2022-11-07T03:30:33.603Z,988.49
2022-11-07T03:31:33.590Z,988.51
2022-11-07T03:32:33.586Z,988.51
2022-11-07T03:33:33.577Z,988.49
2022-11-07T03:34:33.570Z,988.51
2022-11-07T03:35:33.540Z,988.54
2022-11-07T03:36:33.551Z,988.54
2022-11-07T03:37:33.527Z,988.54
2022-11-07T03:38:33.516Z,988.55
2022-11-07T03:39:33.510Z,988.57
2022-11-07T03:40:33.490Z,988.51
2022-11-07T03:41:33.478Z,988.52
2022-11-07T03:42:33.468Z,988.55
2022-11-07T03:43:33.463Z,988.57
2022-11-07T03:44:33.449Z,988.55
2022-11-07T03:45:33.437Z,988.57
2022-11-07T03:46:33.426Z,988.52
2022-11-07T03:47:33.425Z,988.57
2022-11-07T03:48:33.401Z,988.55
2022-11-07T03:49:33.404Z,988.56
2022-11-07T03:50:33.380Z,988.54
2022-11-07T03:51:33.376Z,988.58
2022-11-07T03:52:33.623Z,988.58
2022-11-07T03:53:33.373Z,988.57
2022-11-07T03:54:33.353Z,988.62
2022-11-07T03:55:33.360Z,988.56
2022-11-07T03:56:33.350Z,988.54
2022-11-07T03:57:33.373Z,988.48
2022-11-07T03:58:33.532Z,988.57
2022-11-07T03:59:33.366Z,988.53
2022-11-07T04:00:33.282Z,988.56
2022-11-07T04:01:33.399Z,988.57
2022-11-07T04:03:33.285Z,988.49
2022-11-07T04:04:33.279Z,988.53
2022-11-07T04:05:33.236Z,988.49
2022-11-07T04:06:33.294Z,988.52
2022-11-07T04:07:33.221Z,988.57
2022-11-07T04:08:33.316Z,988.56
2022-11-07T04:09:33.229Z,988.57
2022-11-07T04:10:33.205Z,988.57
2022-11-07T04:11:33.193Z,988.60
2022-11-07T04:12:33.247Z,988.68
2022-11-07T04:13:33.142Z,988.63
2022-11-07T04:14:33.346Z,988.69
2022-11-07T04:15:33.135Z,988.70
2022-11-07T04:16:33.145Z,988.67
2022-11-07T04:17:33.126Z,988.70
2022-11-07T04:18:33.080Z,988.63
2022-11-07T04:19:33.085Z,988.63
2022-11-07T04:20:33.085Z,988.65
2022-11-07T04:21:33.086Z,988.68
2022-11-07T04:22:33.079Z,988.70
2022-11-07T04:23:33.120Z,988.71
2022-11-07T04:24:33.079Z,988.74
2022-11-07T04:25:33.041Z,988.73
2022-11-07T04:26:33.008Z,988.75
2022-11-07T04:27:33.007Z,988.80
2022-11-07T04:28:32.987Z,988.81
2022-11-07T04:29:33.009Z,988.77
2022-11-07T04:30:32.996Z,988.81
2022-11-07T04:31:32.984Z,988.81
2022-11-07T04:32:32.968Z,988.82
2022-11-07T04:33:32.945Z,988.78
2022-11-07T04:34:32.940Z,988.78
2022-11-07T04:35:32.924Z,988.74
2022-11-07T04:36:33.135Z,988.76
2022-11-07T04:37:32.928Z,988.79
2022-11-07T04:38:32.899Z,988.83
2022-11-07T04:39:32.952Z,988.80
2022-11-07T04:40:32.916Z,988.87
2022-11-07T04:41:32.863Z,988.85
2022-11-07T04:42:32.837Z,988.88
2022-11-07T04:43:32.836Z,988.88
2022-11-07T04:44:32.848Z,988.89
2022-11-07T04:45:32.845Z,988.89
2022-11-07T04:46:32.803Z,988.92
2022-11-07T04:47:35.352Z,988.90
2022-11-07T04:48:32.812Z,988.92
2022-11-07T04:49:32.753Z,988.92
2022-11-07T04:50:32.825Z,988.93
2022-11-07T04:51:32.776Z,988.91
2022-11-07T04:52:32.799Z,988.87
2022-11-07T04:53:32.784Z,988.86
2022-11-07T04:54:32.772Z,988.83
2022-11-07T04:55:32.720Z,988.86
2022-11-07T04:56:34.599Z,988.81
2022-11-07T04:57:32.726Z,988.83
2022-11-07T04:58:32.689Z,988.83
2022-11-07T04:59:32.875Z,988.83
2022-11-07T05:00:32.749Z,988.79
2022-11-07T05:01:32.694Z,988.75
2022-11-07T05:02:32.813Z,988.75
2022-11-07T05:03:35.197Z,988.71
2022-11-07T05:04:32.631Z,988.74
2022-11-07T05:05:32.618Z,988.73
2022-11-07T05:06:32.618Z,988.78
2022-11-07T05:07:32.666Z,988.75
2022-11-07T05:08:32.586Z,988.78
2022-11-07T05:09:32.600Z,988.76
2022-11-07T05:10:32.537Z,988.76
2022-11-07T05:11:32.588Z,988.77
2022-11-07T05:12:32.552Z,988.77
2022-11-07T05:13:32.521Z,988.79
2022-11-07T05:14:32.524Z,988.78
2022-11-07T05:15:32.688Z,988.81
2022-11-07T05:16:32.682Z,988.78
2022-11-07T05:17:32.486Z,988.80
2022-11-07T05:18:32.463Z,988.80
2022-11-07T05:19:32.465Z,988.82
2022-11-07T05:20:32.459Z,988.82
2022-11-07T05:21:32.448Z,988.83
2022-11-07T05:22:32.425Z,988.86
2022-11-07T05:23:32.439Z,988.88
2022-11-07T05:24:32.482Z,988.86
2022-11-07T05:25:32.421Z,988.87
2022-11-07T05:26:32.355Z,988.87
2022-11-07T05:27:32.360Z,988.89
2022-11-07T05:28:38.683Z,988.89
2022-11-07T05:29:32.336Z,988.91
2022-11-07T05:30:32.321Z,988.93
2022-11-07T05:31:32.331Z,988.94
2022-11-07T05:32:32.356Z,988.97
2022-11-07T05:33:32.299Z,988.98
2022-11-07T05:34:32.286Z,988.96
2022-11-07T05:35:32.263Z,989.00
2022-11-07T05:36:32.286Z,988.96
2022-11-07T05:37:32.301Z,989.02
2022-11-07T05:38:32.227Z,989.07
2022-11-07T05:39:32.236Z,989.02
2022-11-07T05:40:32.221Z,989.04
2022-11-07T05:41:32.214Z,989.06
2022-11-07T05:42:32.203Z,989.05
2022-11-07T05:43:32.173Z,989.04
2022-11-07T05:44:32.218Z,988.98
2022-11-07T05:45:32.177Z,989.03
2022-11-07T05:46:32.186Z,989.05
2022-11-07T05:47:32.147Z,988.99
2022-11-07T05:48:32.151Z,989.02
2022-11-07T05:49:32.315Z,989.07
2022-11-07T05:50:32.098Z,989.06
2022-11-07T05:51:32.112Z,989.13
2022-11-07T05:52:32.106Z,989.09
2022-11-07T05:53:32.175Z,989.08
2022-11-07T05:54:32.270Z,989.11
2022-11-07T05:55:32.066Z,989.18
2022-11-07T05:56:32.053Z,989.14
2022-11-07T05:57:32.047Z,989.18
2022-11-07T05:58:32.031Z,989.21
2022-11-07T05:59:32.005Z,989.20
2022-11-07T06:00:32.006Z,989.15
2022-11-07T06:01:32.206Z,989.14
2022-11-07T06:02:32.402Z,989.18
2022-11-07T06:03:31.959Z,989.16
2022-11-07T06:04:31.960Z,989.19
2022-11-07T06:05:31.955Z,989.17
2022-11-07T06:06:32.759Z,989.21
2022-11-07T06:07:31.920Z,989.22
2022-11-07T06:08:31.941Z,989.24
2022-11-07T06:09:31.907Z,989.21
2022-11-07T06:10:31.891Z,989.22
2022-11-07T06:11:31.873Z,989.21
2022-11-07T06:12:31.896Z,989.23
2022-11-07T06:13:31.882Z,989.22
2022-11-07T06:14:31.871Z,989.20
2022-11-07T06:15:31.830Z,989.21
2022-11-07T06:16:31.833Z,989.20
2022-11-07T06:17:31.829Z,989.22
2022-11-07T06:18:31.797Z,989.24
2022-11-07T06:19:31.993Z,989.25
2022-11-07T06:20:31.781Z,989.24
2022-11-07T06:21:31.758Z,989.27
2022-11-07T06:22:31.775Z,989.26
2022-11-07T06:23:31.741Z,989.32
2022-11-07T06:24:31.732Z,989.33
2022-11-07T06:25:31.739Z,989.31
2022-11-07T06:26:31.708Z,989.31
2022-11-07T06:27:31.708Z,989.34
2022-11-07T06:28:31.733Z,989.39
2022-11-07T06:29:31.684Z,989.33
2022-11-07T06:30:31.707Z,989.33
2022-11-07T06:31:31.872Z,989.34
2022-11-07T06:32:31.662Z,989.31
2022-11-07T06:33:31.646Z,989.27
2022-11-07T06:34:31.626Z,989.28
2022-11-07T06:35:31.621Z,989.28
2022-11-07T06:36:31.616Z,989.32
2022-11-07T06:37:31.608Z,989.36
2022-11-07T06:38:31.591Z,989.31
2022-11-07T06:39:31.573Z,989.30
2022-11-07T06:40:31.764Z,989.27
2022-11-07T06:41:31.559Z,989.34
2022-11-07T06:42:31.548Z,989.30
2022-11-07T06:43:33.828Z,989.30
2022-11-07T06:44:31.551Z,989.36
2022-11-07T06:45:31.510Z,989.39
2022-11-07T06:46:31.500Z,989.32
2022-11-07T06:47:31.474Z,989.32
2022-11-07T06:48:31.575Z,989.32
2022-11-07T06:49:31.460Z,989.27
2022-11-07T06:50:31.450Z,989.34
2022-11-07T06:51:31.435Z,989.35
2022-11-07T06:52:31.435Z,989.36
2022-11-07T06:53:31.413Z,989.37
2022-11-07T06:54:31.492Z,989.33
2022-11-07T06:55:31.400Z,989.31
2022-11-07T06:56:31.405Z,989.33
2022-11-07T06:57:31.371Z,989.27
2022-11-07T06:58:31.378Z,989.25
2022-11-07T06:59:31.374Z,989.35
2022-11-07T07:00:31.947Z,989.34
2022-11-07T07:01:31.445Z,989.40
2022-11-07T07:02:56.931Z,989.38
2022-11-07T07:03:31.304Z,989.39
2022-11-07T07:04:31.320Z,989.36
2022-11-07T07:05:31.292Z,989.39
2022-11-07T07:06:31.282Z,989.42
2022-11-07T07:07:31.266Z,989.52
2022-11-07T07:08:31.458Z,989.54
2022-11-07T07:09:31.244Z,989.58
2022-11-07T07:10:31.306Z,989.58
2022-11-07T07:11:31.231Z,989.60
2022-11-07T07:12:31.218Z,989.58
2022-11-07T07:13:31.217Z,989.58
2022-11-07T07:14:31.214Z,989.58
2022-11-07T07:15:47.521Z,989.58
2022-11-07T07:16:31.166Z,989.59
2022-11-07T07:17:31.170Z,989.59
2022-11-07T07:18:31.355Z,989.60
2022-11-07T07:19:31.154Z,989.60
2022-11-07T07:20:31.243Z,989.60
2022-11-07T07:21:31.259Z,989.63
2022-11-07T07:22:31.111Z,989.60
2022-11-07T07:23:31.109Z,989.67
2022-11-07T07:24:31.096Z,989.66
2022-11-07T07:25:31.137Z,989.71
2022-11-07T07:26:31.126Z,989.73
2022-11-07T07:27:31.084Z,989.72
2022-11-07T07:28:31.060Z,989.71
2022-11-07T07:29:31.061Z,989.73
2022-11-07T07:30:31.065Z,989.69
2022-11-07T07:31:31.036Z,989.72
2022-11-07T07:32:31.006Z,989.71
2022-11-07T07:33:30.999Z,989.72
2022-11-07T07:34:31.006Z,989.73
2022-11-07T07:35:30.996Z,989.69
2022-11-07T07:36:31.304Z,989.73
2022-11-07T07:37:30.967Z,989.76
2022-11-07T07:38:30.947Z,989.75
2022-11-07T07:39:30.970Z,989.71
2022-11-07T07:40:30.942Z,989.74
2022-11-07T07:41:33.004Z,989.75
2022-11-07T07:42:30.938Z,989.78
2022-11-07T07:43:30.930Z,989.74
2022-11-07T07:44:30.915Z,989.77
2022-11-07T07:45:30.916Z,989.73
2022-11-07T07:46:30.986Z,989.78
2022-11-07T07:47:30.866Z,989.82
2022-11-07T07:48:30.857Z,989.82
2022-11-07T07:49:30.851Z,989.85
2022-11-07T07:50:30.848Z,989.88
2022-11-07T07:51:30.834Z,989.90
2022-11-07T07:52:30.958Z,989.90
2022-11-07T07:53:30.816Z,989.91
2022-11-07T07:54:30.810Z,989.90
2022-11-07T07:55:30.831Z,989.89
2022-11-07T07:56:30.795Z,989.83
2022-11-07T07:57:30.788Z,989.88
2022-11-07T07:58:30.833Z,989.89
2022-11-07T07:59:30.843Z,989.92
2022-11-07T08:00:30.775Z,989.98
2022-11-07T08:01:30.900Z,990.02
2022-11-07T08:02:30.810Z,990.01
2022-11-07T08:03:50.678Z,989.98
2022-11-07T08:04:30.742Z,990.00
2022-11-07T08:05:30.782Z,990.00
2022-11-07T08:06:30.753Z,989.99
2022-11-07T08:07:30.719Z,989.99
2022-11-07T08:08:36.828Z,990.02
2022-11-07T08:09:30.705Z,990.07
2022-11-07T08:10:46.411Z,990.03
2022-11-07T08:11:30.688Z,990.04
2022-11-07T08:12:30.685Z,989.98
2022-11-07T08:13:30.675Z,990.01
2022-11-07T08:14:30.664Z,989.99
2022-11-07T08:15:30.659Z,990.03
2022-11-07T08:16:30.874Z,990.03
2022-11-07T08:17:30.645Z,990.05
2022-11-07T08:18:30.708Z,990.05
2022-11-07T08:19:30.821Z,990.05
2022-11-07T08:20:30.634Z,990.02
2022-11-07T08:21:30.634Z,990.01
2022-11-07T08:22:30.996Z,990.05
2022-11-07T08:23:30.640Z,990.09
2022-11-07T08:24:30.743Z,990.06
2022-11-07T08:25:30.620Z,990.04
2022-11-07T08:26:30.605Z,990.04
2022-11-07T08:27:30.616Z,990.09
2022-11-07T08:28:30.608Z,990.08
2022-11-07T08:29:30.587Z,990.08
2022-11-07T08:30:30.606Z,990.11
2022-11-07T08:31:30.600Z,990.13
2022-11-07T08:32:30.699Z,990.10
2022-11-07T08:33:30.679Z,990.14
2022-11-07T08:34:30.577Z,990.12
2022-11-07T08:35:30.571Z,990.14
2022-11-07T08:36:30.565Z,990.15
2022-11-07T08:37:30.560Z,990.18
2022-11-07T08:38:30.559Z,990.12
2022-11-07T08:39:30.558Z,990.17
2022-11-07T08:40:30.577Z,990.14
2022-11-07T08:41:30.545Z,990.15
2022-11-07T08:42:30.575Z,990.13
2022-11-07T08:43:30.552Z,990.12
2022-11-07T08:44:30.541Z,990.10
2022-11-07T08:45:30.541Z,990.14
2022-11-07T08:46:30.536Z,990.13
2022-11-07T08:47:30.532Z,990.09
2022-11-07T08:48:30.528Z,990.14
2022-11-07T08:49:30.533Z,990.16
2022-11-07T08:50:30.513Z,990.20
2022-11-07T08:51:30.715Z,990.21
2022-11-07T08:52:30.716Z,990.23
2022-11-07T08:53:30.517Z,990.23
2022-11-07T08:54:30.666Z,990.21
2022-11-07T08:55:30.714Z,990.15
2022-11-07T08:56:30.514Z,990.21
2022-11-07T08:57:30.497Z,990.20
2022-11-07T08:58:30.595Z,990.22
2022-11-07T08:59:30.482Z,990.19
2022-11-07T09:00:30.495Z,990.21
2022-11-07T09:01:30.707Z,990.27
2022-11-07T09:03:44.693Z,990.33
2022-11-07T09:04:30.623Z,990.32
2022-11-07T09:05:30.473Z,990.27
2022-11-07T09:06:30.475Z,990.28
2022-11-07T09:07:30.484Z,990.23
2022-11-07T09:08:30.493Z,990.31
2022-11-07T09:09:30.497Z,990.30
2022-11-07T09:10:30.467Z,990.25
2022-11-07T09:11:30.450Z,990.19
2022-11-07T09:12:30.509Z,990.18
2022-11-07T09:13:30.457Z,990.18
2022-11-07T09:14:30.457Z,990.16
2022-11-07T09:15:30.454Z,990.17
2022-11-07T09:16:30.441Z,990.20
2022-11-07T09:17:30.612Z,990.18
2022-11-07T09:18:30.456Z,990.16
2022-11-07T09:19:30.442Z,990.19
2022-11-07T09:20:30.428Z,990.17
2022-11-07T09:21:30.418Z,990.19
2022-11-07T09:22:30.415Z,990.14
2022-11-07T09:23:30.412Z,990.23
2022-11-07T09:24:30.642Z,990.18
2022-11-07T09:25:30.490Z,990.20
2022-11-07T09:26:30.458Z,990.16
2022-11-07T09:27:30.460Z,990.20
2022-11-07T09:28:30.506Z,990.20
2022-11-07T09:29:30.426Z,990.25
2022-11-07T09:30:30.432Z,990.21
2022-11-07T09:31:30.425Z,990.24
2022-11-07T09:32:44.695Z,990.27
2022-11-07T09:33:30.391Z,990.20
2022-11-07T09:34:30.432Z,990.17
2022-11-07T09:35:30.395Z,990.18
2022-11-07T09:36:30.387Z,990.23
2022-11-07T09:37:30.388Z,990.21
2022-11-07T09:38:30.328Z,990.25
2022-11-07T09:39:30.421Z,990.21
2022-11-07T09:40:30.558Z,990.29
2022-11-07T09:41:30.407Z,990.26
2022-11-07T09:42:30.415Z,990.31
2022-11-07T09:43:30.334Z,990.30
2022-11-07T09:44:33.260Z,990.29
2022-11-07T09:45:30.345Z,990.30
2022-11-07T09:46:30.420Z,990.40
2022-11-07T09:47:30.357Z,990.30
2022-11-07T09:48:30.341Z,990.22
2022-11-07T09:49:30.413Z,990.22
2022-11-07T09:50:30.534Z,990.20
2022-11-07T09:51:30.377Z,990.21
2022-11-07T09:52:30.334Z,990.23
2022-11-07T09:53:30.324Z,990.21
2022-11-07T09:54:30.330Z,990.22
2022-11-07T09:55:30.309Z,990.20
2022-11-07T09:56:30.396Z,990.18
2022-11-07T09:57:30.310Z,990.23
2022-11-07T09:58:30.307Z,990.20
2022-11-07T09:59:30.266Z,990.20
2022-11-07T10:00:30.282Z,990.16
2022-11-07T10:01:30.432Z,990.21
2022-11-07T10:02:30.335Z,990.19
2022-11-07T10:03:30.274Z,990.19
2022-11-07T10:04:30.262Z,990.28
2022-11-07T10:05:30.242Z,990.31
2022-11-07T10:06:30.262Z,990.25
2022-11-07T10:07:30.251Z,990.29
2022-11-07T10:08:30.253Z,990.25
2022-11-07T10:09:30.231Z,990.38
2022-11-07T10:10:30.436Z,990.28
2022-11-07T10:11:30.312Z,990.30
2022-11-07T10:12:30.218Z,990.29
2022-11-07T10:13:30.223Z,990.29
2022-11-07T10:14:30.209Z,990.30
2022-11-07T10:15:30.202Z,990.26
2022-11-07T10:16:30.234Z,990.27
2022-11-07T10:17:30.189Z,990.31
2022-11-07T10:18:30.209Z,990.29
2022-11-07T10:19:30.197Z,990.29
2022-11-07T10:20:30.180Z,990.30
2022-11-07T10:21:37.752Z,990.31
2022-11-07T10:22:30.183Z,990.26
2022-11-07T10:23:30.184Z,990.29
2022-11-07T10:24:30.176Z,990.31
2022-11-07T10:25:30.169Z,990.28
2022-11-07T10:26:30.149Z,990.28
2022-11-07T10:27:32.856Z,990.27
2022-11-07T10:28:30.140Z,990.25
2022-11-07T10:29:30.345Z,990.25
2022-11-07T10:30:30.136Z,990.28
2022-11-07T10:31:30.182Z,990.26
2022-11-07T10:32:30.244Z,990.25
2022-11-07T10:33:30.324Z,990.24
2022-11-07T10:34:30.143Z,990.26
2022-11-07T10:35:30.301Z,990.28
2022-11-07T10:36:30.122Z,990.28
2022-11-07T10:37:30.092Z,990.28
2022-11-07T10:38:30.309Z,990.29
2022-11-07T10:39:30.194Z,990.33
2022-11-07T10:40:30.116Z,990.29
2022-11-07T10:41:30.292Z,990.27
2022-11-07T10:42:30.053Z,990.25
2022-11-07T10:43:30.076Z,990.23
2022-11-07T10:44:30.043Z,990.23
2022-11-07T10:45:30.025Z,990.22
2022-11-07T10:46:30.047Z,990.27
2022-11-07T10:47:30.029Z,990.27
2022-11-07T10:48:30.055Z,990.28
2022-11-07T10:49:30.019Z,990.25
2022-11-07T10:50:30.017Z,990.23
2022-11-07T10:51:29.999Z,990.23
2022-11-07T10:52:30.022Z,990.24
2022-11-07T10:53:29.986Z,990.24
2022-11-07T10:54:29.983Z,990.28
2022-11-07T10:55:29.991Z,990.29
2022-11-07T10:56:29.974Z,990.30
2022-11-07T10:57:30.177Z,990.28
2022-11-07T10:58:29.963Z,990.30
2022-11-07T10:59:35.639Z,990.30
2022-11-07T11:00:29.956Z,990.31
2022-11-07T11:01:30.124Z,990.31
2022-11-07T11:02:29.931Z,990.32
2022-11-07T11:03:43.147Z,990.32
2022-11-07T11:04:29.972Z,990.29
2022-11-07T11:05:29.920Z,990.32
2022-11-07T11:06:29.895Z,990.27
2022-11-07T11:07:29.942Z,990.25
2022-11-07T11:08:29.888Z,990.19
2022-11-07T11:09:29.927Z,990.17
2022-11-07T11:10:29.880Z,990.15
2022-11-07T11:11:29.857Z,990.11
2022-11-07T11:12:32.173Z,990.18
2022-11-07T11:13:29.865Z,990.09
2022-11-07T11:14:29.854Z,990.11
2022-11-07T11:15:35.364Z,990.10
2022-11-07T11:16:29.849Z,990.08
2022-11-07T11:17:29.871Z,990.08
2022-11-07T11:18:29.846Z,990.08
2022-11-07T11:19:30.003Z,990.09
2022-11-07T11:20:29.849Z,990.07
2022-11-07T11:21:29.812Z,990.06
2022-11-07T11:22:29.830Z,990.07
2022-11-07T11:23:29.791Z,990.08
2022-11-07T11:24:29.795Z,990.12
2022-11-07T11:25:29.790Z,990.06
2022-11-07T11:26:29.787Z,990.01
2022-11-07T11:27:29.758Z,990.03
2022-11-07T11:28:29.739Z,989.99
2022-11-07T11:29:29.751Z,989.96
2022-11-07T11:30:29.740Z,989.98
2022-11-07T11:31:29.781Z,989.94
2022-11-07T11:32:29.732Z,989.95
2022-11-07T11:33:29.740Z,989.96
2022-11-07T11:34:29.723Z,990.00
2022-11-07T11:35:29.715Z,990.01
2022-11-07T11:36:29.767Z,989.96
2022-11-07T11:37:29.690Z,989.98
2022-11-07T11:38:29.696Z,989.94
2022-11-07T11:39:29.674Z,989.96
2022-11-07T11:40:29.687Z,989.94
2022-11-07T11:41:29.650Z,990.00
2022-11-07T11:42:29.676Z,989.93
2022-11-07T11:43:29.647Z,989.96
2022-11-07T11:44:29.639Z,989.91
2022-11-07T11:45:29.636Z,989.93
2022-11-07T11:46:29.636Z,989.91
2022-11-07T11:47:34.390Z,989.92
2022-11-07T11:48:29.625Z,989.89
2022-11-07T11:49:29.605Z,989.91
2022-11-07T11:50:29.601Z,989.84
2022-11-07T11:51:29.582Z,989.89
2022-11-07T11:52:29.619Z,989.85
2022-11-07T11:53:29.552Z,989.86
2022-11-07T11:54:29.553Z,989.86
2022-11-07T11:55:29.549Z,989.90
2022-11-07T11:56:29.546Z,989.86
2022-11-07T11:57:29.533Z,989.88
2022-11-07T11:58:29.732Z,989.84
2022-11-07T11:59:29.527Z,989.84
2022-11-07T12:00:29.514Z,989.88
2022-11-07T12:01:29.512Z,989.82
2022-11-07T12:02:29.591Z,989.89
2022-11-07T12:03:29.492Z,989.87
2022-11-07T12:04:29.480Z,989.90
2022-11-07T12:05:29.490Z,989.84
2022-11-07T12:06:29.471Z,989.91
2022-11-07T12:07:29.461Z,989.91
2022-11-07T12:08:29.520Z,989.90
2022-11-07T12:09:29.450Z,989.93
2022-11-07T12:10:29.448Z,989.98
2022-11-07T12:11:29.442Z,989.97
2022-11-07T12:12:29.431Z,989.99
2022-11-07T12:13:29.426Z,990.00
2022-11-07T12:14:29.418Z,990.02
2022-11-07T12:15:29.393Z,990.03
2022-11-07T12:16:29.384Z,990.02
2022-11-07T12:17:29.389Z,990.02
2022-11-07T12:18:29.394Z,990.03
2022-11-07T12:19:29.581Z,990.03
2022-11-07T12:20:29.364Z,990.04
2022-11-07T12:21:29.354Z,990.04
2022-11-07T12:22:29.352Z,990.00
2022-11-07T12:23:29.572Z,990.05
2022-11-07T12:24:29.350Z,989.98
2022-11-07T12:25:29.343Z,989.97
2022-11-07T12:26:29.327Z,989.99
2022-11-07T12:27:29.313Z,990.01
2022-11-07T12:28:29.313Z,990.05
2022-11-07T12:29:29.505Z,989.99
2022-11-07T12:30:29.489Z,990.03